Time;durP1;ratioP1;P1;durP2;ratioP2;P2;SDS_P1;SDS_P2;PMS_P1;PMS_P2;Temp;Humidity;BMP_temperature;BMP_pressure;BME280_temperature;BME280_humidity;BME280_pressure;Samples;Min_cycle;Max_cycle;Signal;HPM_P1;HPM_P2
2021/12/03 00:01:16;;;;;;;3.92;2.90;;;3.10;83.90;;;;;;4987290;28;20671;-79
2021/12/03 00:03:42;;;;;;;7.40;4.32;;;3.10;84.50;;;;;;4989303;28;20366;-79
2021/12/03 00:06:07;;;;;;;6.97;3.97;;;3.10;83.90;;;;;;4984071;28;20033;-78
2021/12/03 00:08:33;;;;;;;6.38;3.67;;;3.10;84.10;;;;;;4982091;28;20029;-79
2021/12/03 00:11:01;;;;;;;5.35;3.10;;;3.00;84.10;;;;;;4981936;28;20030;-79
2021/12/03 00:13:30;;;;;;;6.18;3.75;;;3.10;84.20;;;;;;4989053;28;20026;-80
2021/12/03 00:15:58;;;;;;;3.70;2.70;;;3.00;84.20;;;;;;4985608;28;20038;-81
2021/12/03 00:18:24;;;;;;;3.83;3.15;;;3.10;84.20;;;;;;4975509;28;20018;-81
2021/12/03 00:20:51;;;;;;;6.25;3.45;;;3.00;84.30;;;;;;4986970;28;20097;-80
2021/12/03 00:23:19;;;;;;;5.47;3.70;;;3.00;84.30;;;;;;4986869;28;20062;-80
2021/12/03 00:25:45;;;;;;;6.25;3.92;;;3.00;84.40;;;;;;4981236;28;20030;-81
2021/12/03 00:28:10;;;;;;;6.72;4.00;;;3.00;84.40;;;;;;4977571;28;20117;-80
2021/12/03 00:30:37;;;;;;;6.95;3.00;;;3.00;84.30;;;;;;4975649;28;20105;-80
2021/12/03 00:33:04;;;;;;;7.10;4.10;;;2.90;84.40;;;;;;4985925;28;20022;-80
2021/12/03 00:35:31;;;;;;;3.95;3.30;;;2.90;84.30;;;;;;4985202;28;20057;-82
2021/12/03 00:37:57;;;;;;;7.03;3.90;;;2.90;84.40;;;;;;4987116;28;20748;-80
2021/12/03 00:40:27;;;;;;;5.72;3.15;;;3.00;84.50;;;;;;4979661;28;20042;-80
2021/12/03 00:42:53;;;;;;;6.60;4.07;;;3.00;84.50;;;;;;4975651;28;20061;-80
2021/12/03 00:45:19;;;;;;;4.57;3.80;;;2.90;84.40;;;;;;4987449;28;20062;-80
2021/12/03 00:47:45;;;;;;;7.85;5.13;;;3.00;84.50;;;;;;4977904;28;20555;-80
2021/12/03 00:50:16;;;;;;;7.72;4.57;;;3.00;84.60;;;;;;4985401;28;20125;-80
2021/12/03 00:52:41;;;;;;;5.55;3.30;;;3.00;84.50;;;;;;4982333;28;20034;-80
2021/12/03 00:55:08;;;;;;;5.40;3.80;;;2.90;84.40;;;;;;4977438;28;20037;-78
2021/12/03 00:57:33;;;;;;;5.65;3.80;;;2.90;84.50;;;;;;4973232;28;20506;-79
2021/12/03 00:59:59;;;;;;;6.80;4.25;;;3.00;84.50;;;;;;4982875;28;20038;-79
2021/12/03 01:02:24;;;;;;;5.28;3.40;;;3.00;84.50;;;;;;4984649;28;20023;-80
2021/12/03 01:04:50;;;;;;;4.85;3.53;;;3.00;84.50;;;;;;4989282;28;20128;-79
2021/12/03 01:07:16;;;;;;;5.40;3.35;;;3.00;84.60;;;;;;4982839;28;20042;-79
2021/12/03 01:09:42;;;;;;;5.90;4.55;;;2.90;84.50;;;;;;4988101;28;20549;-80
2021/12/03 01:12:09;;;;;;;6.38;4.13;;;2.90;84.60;;;;;;4987563;28;20037;-79
2021/12/03 01:14:36;;;;;;;5.97;4.45;;;3.00;84.80;;;;;;4985322;28;20489;-79
2021/12/03 01:17:03;;;;;;;6.32;4.22;;;2.90;85.30;;;;;;4980297;28;20026;-79
2021/12/03 01:19:29;;;;;;;5.28;4.22;;;2.90;84.80;;;;;;4986345;28;20030;-79
2021/12/03 01:21:55;;;;;;;5.72;4.68;;;2.90;84.90;;;;;;4978209;28;20027;-79
2021/12/03 01:24:20;;;;;;;4.13;3.28;;;2.90;84.90;;;;;;4975025;28;20023;-80
2021/12/03 01:26:49;;;;;;;5.03;3.95;;;2.90;84.90;;;;;;4982763;28;20030;-79
2021/12/03 01:29:15;;;;;;;4.97;3.70;;;2.90;84.90;;;;;;4979439;28;20026;-79
2021/12/03 01:31:41;;;;;;;7.00;4.90;;;2.90;85.00;;;;;;4990905;28;20030;-79
2021/12/03 01:34:06;;;;;;;7.05;3.60;;;2.90;85.00;;;;;;4993615;28;20069;-79
2021/12/03 01:36:32;;;;;;;6.60;5.35;;;2.80;85.10;;;;;;4988910;28;20547;-79
2021/12/03 01:38:57;;;;;;;7.88;5.38;;;2.90;85.10;;;;;;4978981;28;20046;-79
2021/12/03 01:41:23;;;;;;;5.72;4.28;;;2.90;85.20;;;;;;4980842;28;20049;-79
2021/12/03 01:43:50;;;;;;;6.45;5.43;;;2.90;85.10;;;;;;4980844;28;20108;-79
2021/12/03 01:46:19;;;;;;;7.40;5.30;;;2.90;85.10;;;;;;4984700;28;20034;-79
2021/12/03 01:48:45;;;;;;;5.00;4.35;;;2.90;85.10;;;;;;4983141;28;20034;-79
2021/12/03 01:51:10;;;;;;;6.00;4.90;;;2.90;85.00;;;;;;4993693;28;20022;-79
2021/12/03 01:53:38;;;;;;;8.63;5.70;;;2.90;84.90;;;;;;4986674;28;20042;-79
2021/12/03 01:56:09;;;;;;;5.75;4.60;;;2.90;84.80;;;;;;4985001;28;20022;-79
2021/12/03 01:58:35;;;;;;;7.32;4.70;;;2.90;84.90;;;;;;4992323;28;20038;-79
2021/12/03 02:01:04;;;;;;;6.88;5.32;;;2.90;84.90;;;;;;4993535;28;20041;-80
2021/12/03 02:03:34;;;;;;;5.82;4.78;;;2.90;84.80;;;;;;4983113;28;20019;-79
2021/12/03 02:06:01;;;;;;;8.52;5.20;;;2.90;84.90;;;;;;4988661;28;20401;-78
2021/12/03 02:08:27;;;;;;;8.77;5.53;;;2.90;84.90;;;;;;4979864;28;20061;-79
2021/12/03 02:10:53;;;;;;;8.73;6.30;;;2.90;85.00;;;;;;4991372;28;20049;-78
2021/12/03 02:13:19;;;;;;;3.72;3.08;;;2.90;84.90;;;;;;4980452;28;20035;-78
2021/12/03 02:15:46;;;;;;;6.32;4.85;;;2.90;85.00;;;;;;4991078;28;20027;-78
2021/12/03 02:18:13;;;;;;;7.05;5.05;;;3.00;85.00;;;;;;4983705;28;20038;-78
2021/12/03 02:20:43;;;;;;;6.72;6.00;;;3.00;85.00;;;;;;4981627;28;20042;-78
2021/12/03 02:23:09;;;;;;;6.68;5.05;;;3.00;85.00;;;;;;4983740;28;20690;-78
2021/12/03 02:25:35;;;;;;;9.05;5.85;;;3.00;85.10;;;;;;4980346;28;20027;-78
2021/12/03 02:28:00;;;;;;;6.40;5.32;;;3.00;85.10;;;;;;4983992;28;20025;-79
2021/12/03 02:30:26;;;;;;;8.55;5.50;;;3.00;85.10;;;;;;4980604;28;20129;-79
2021/12/03 02:32:53;;;;;;;6.22;5.18;;;3.00;85.10;;;;;;4991381;28;20385;-78
2021/12/03 02:35:21;;;;;;;5.82;3.83;;;3.00;85.10;;;;;;4987625;28;20041;-79
2021/12/03 02:37:47;;;;;;;6.68;4.35;;;3.00;85.10;;;;;;4988785;28;20618;-79
2021/12/03 02:40:14;;;;;;;7.28;4.90;;;3.00;85.10;;;;;;4992423;28;20034;-80
2021/12/03 02:42:40;;;;;;;9.10;6.00;;;3.00;85.10;;;;;;4977694;28;20041;-79
2021/12/03 02:45:07;;;;;;;14.82;6.03;;;3.10;85.20;;;;;;4973632;28;20081;-79
2021/12/03 02:47:32;;;;;;;9.27;7.22;;;3.10;85.20;;;;;;4986524;28;20033;-79
2021/12/03 02:49:58;;;;;;;7.90;5.85;;;3.00;85.10;;;;;;4991854;28;20018;-79
2021/12/03 02:52:24;;;;;;;8.50;5.68;;;3.00;85.30;;;;;;4979872;28;20072;-80
2021/12/03 02:54:49;;;;;;;8.02;5.57;;;3.00;85.20;;;;;;4973465;28;20022;-80
2021/12/03 02:57:15;;;;;;;15.20;7.32;;;3.10;85.20;;;;;;4986392;28;20038;-79
2021/12/03 02:59:41;;;;;;;8.07;6.70;;;3.10;85.10;;;;;;4983269;28;20046;-79
2021/12/03 03:02:06;;;;;;;11.60;7.30;;;3.10;85.10;;;;;;4991919;28;20049;-80
2021/12/03 03:04:32;;;;;;;10.80;7.47;;;3.10;85.10;;;;;;4991349;28;20567;-79
2021/12/03 03:06:59;;;;;;;11.00;7.22;;;3.10;85.10;;;;;;4983781;28;20392;-79
2021/12/03 03:09:25;;;;;;;11.95;8.30;;;3.00;85.10;;;;;;4976328;28;20725;-79
2021/12/03 03:11:51;;;;;;;11.13;7.40;;;3.00;85.20;;;;;;4974375;28;20546;-79
2021/12/03 03:14:17;;;;;;;16.48;7.97;;;3.00;85.40;;;;;;4983960;28;20033;-79
2021/12/03 03:16:43;;;;;;;11.68;6.82;;;2.90;85.40;;;;;;4983115;28;20031;-79
2021/12/03 03:19:15;;;;;;;8.50;6.00;;;3.00;85.60;;;;;;4991452;28;20069;-79
2021/12/03 03:21:41;;;;;;;7.82;5.60;;;3.00;85.60;;;;;;4977828;28;20043;-79
2021/12/03 03:24:08;;;;;;;11.65;7.93;;;3.00;85.50;;;;;;4982906;28;20031;-80
2021/12/03 03:26:38;;;;;;;10.70;7.53;;;2.90;85.50;;;;;;4985516;28;20033;-79
2021/12/03 03:29:10;;;;;;;11.23;7.25;;;2.90;85.60;;;;;;4990601;28;20111;-79
2021/12/03 03:31:37;;;;;;;8.70;6.75;;;3.00;85.70;;;;;;4990363;28;20117;-79
2021/12/03 03:34:05;;;;;;;10.15;7.10;;;3.00;85.60;;;;;;4975150;28;20057;-79
2021/12/03 03:36:35;;;;;;;12.23;8.65;;;3.00;85.70;;;;;;4984148;28;20026;-79
2021/12/03 03:39:02;;;;;;;11.93;8.15;;;3.00;85.70;;;;;;4983640;28;20080;-79
2021/12/03 03:41:27;;;;;;;10.95;7.35;;;2.90;85.80;;;;;;4979937;28;20042;-78
2021/12/03 03:43:53;;;;;;;12.40;9.70;;;2.90;86.00;;;;;;4988423;28;20026;-79
2021/12/03 03:46:19;;;;;;;12.20;8.70;;;2.90;86.00;;;;;;4985421;28;20026;-78
2021/12/03 03:48:44;;;;;;;8.68;6.38;;;2.90;86.10;;;;;;4985014;28;20026;-78
2021/12/03 03:51:11;;;;;;;20.20;12.85;;;2.90;86.20;;;;;;4978756;28;20452;-78
2021/12/03 03:53:38;;;;;;;14.52;9.52;;;2.90;86.30;;;;;;4983159;28;20057;-79
2021/12/03 03:56:05;;;;;;;14.48;9.35;;;2.80;86.50;;;;;;4987089;28;20413;-78
2021/12/03 03:58:31;;;;;;;12.50;9.65;;;2.80;86.50;;;;;;4974886;28;20058;-78
2021/12/03 04:00:56;;;;;;;14.95;9.73;;;2.80;86.60;;;;;;4983311;28;20089;-78
2021/12/03 04:03:22;;;;;;;11.65;8.20;;;2.80;86.60;;;;;;4989500;28;20077;-78
2021/12/03 04:05:48;;;;;;;15.27;11.57;;;2.90;86.70;;;;;;4990845;28;20018;-78
2021/12/03 04:08:13;;;;;;;14.43;9.85;;;2.80;86.70;;;;;;4989985;28;20032;-78
2021/12/03 04:10:39;;;;;;;12.50;9.13;;;2.90;86.90;;;;;;4981260;28;20041;-78
2021/12/03 04:13:04;;;;;;;17.38;11.30;;;2.90;86.90;;;;;;4978840;28;20093;-78
2021/12/03 04:15:30;;;;;;;12.07;8.93;;;2.90;86.90;;;;;;4982545;28;20031;-78
2021/12/03 04:17:56;;;;;;;14.88;9.98;;;2.90;86.90;;;;;;4983736;28;20023;-78
2021/12/03 04:20:22;;;;;;;17.45;11.85;;;2.90;87.00;;;;;;4979180;28;20065;-79
2021/12/03 04:22:48;;;;;;;12.18;9.20;;;2.90;87.00;;;;;;4977266;28;20026;-78
2021/12/03 04:25:17;;;;;;;22.23;12.75;;;2.90;87.10;;;;;;4989797;28;20124;-78
2021/12/03 04:27:43;;;;;;;17.17;11.88;;;2.90;87.10;;;;;;4974910;28;20054;-79
2021/12/03 04:30:14;;;;;;;16.00;11.88;;;2.90;87.20;;;;;;4989504;28;20069;-79
2021/12/03 04:32:40;;;;;;;14.45;10.27;;;2.90;87.20;;;;;;4983022;28;20441;-78
2021/12/03 04:35:06;;;;;;;12.93;9.32;;;3.00;87.90;;;;;;4977490;28;20018;-79
2021/12/03 04:37:32;;;;;;;15.25;11.30;;;3.00;87.20;;;;;;4988521;28;20058;-79
2021/12/03 04:39:57;;;;;;;26.45;15.57;;;2.90;87.30;;;;;;4971268;28;20520;-79
2021/12/03 04:42:23;;;;;;;28.25;14.80;;;2.90;87.40;;;;;;4985367;28;20026;-79
2021/12/03 04:44:48;;;;;;;34.28;16.48;;;2.90;87.50;;;;;;4988997;28;20054;-79
2021/12/03 04:47:14;;;;;;;23.77;14.02;;;2.90;87.60;;;;;;4984099;28;20023;-79
2021/12/03 04:49:40;;;;;;;20.63;13.93;;;2.90;87.70;;;;;;4986183;28;20469;-79
2021/12/03 04:52:06;;;;;;;18.40;11.30;;;2.90;87.70;;;;;;4972850;28;20177;-79
2021/12/03 04:54:31;;;;;;;28.70;14.27;;;3.00;87.90;;;;;;4983920;28;20416;-79
2021/12/03 04:56:57;;;;;;;22.63;14.77;;;3.00;87.80;;;;;;4986056;28;20059;-79
2021/12/03 04:59:24;;;;;;;37.97;18.15;;;3.00;87.80;;;;;;4971212;28;20037;-78
2021/12/03 05:01:53;;;;;;;24.85;15.70;;;3.00;87.90;;;;;;4977694;28;20029;-78
2021/12/03 05:04:19;;;;;;;23.67;14.40;;;2.90;87.80;;;;;;4977970;28;20023;-79
2021/12/03 05:09:29;;;;;;;32.78;18.17;;;3.00;88.00;;;;;;4979383;28;20177;-79
2021/12/03 05:11:54;;;;;;;23.50;14.93;;;3.00;88.10;;;;;;4987916;28;20536;-78
2021/12/03 05:14:20;;;;;;;35.65;18.92;;;3.00;88.10;;;;;;4972121;28;20084;-78
2021/12/03 05:16:48;;;;;;;30.63;17.25;;;3.00;88.20;;;;;;4982454;28;20109;-78
2021/12/03 05:19:13;;;;;;;69.90;23.60;;;3.00;88.20;;;;;;4979294;28;20054;-78
2021/12/03 05:21:39;;;;;;;33.75;17.88;;;3.00;88.30;;;;;;4984864;28;20481;-79
2021/12/03 05:24:05;;;;;;;27.77;14.95;;;3.00;88.40;;;;;;4984949;28;20133;-79
2021/12/03 05:26:31;;;;;;;27.63;14.60;;;3.00;88.30;;;;;;4979833;28;20568;-78
2021/12/03 05:28:56;;;;;;;34.30;15.82;;;3.10;88.30;;;;;;4980132;28;20398;-79
2021/12/03 05:31:22;;;;;;;31.45;16.60;;;3.10;88.30;;;;;;4989027;28;20084;-78
2021/12/03 05:33:48;;;;;;;35.17;17.83;;;3.20;88.20;;;;;;4971545;28;20525;-79
2021/12/03 05:36:13;;;;;;;33.85;17.42;;;3.10;88.30;;;;;;4981378;28;20113;-79
2021/12/03 05:38:40;;;;;;;23.58;11.98;;;3.20;88.30;;;;;;4987032;28;20038;-79
2021/12/03 05:41:05;;;;;;;33.97;17.05;;;3.20;88.20;;;;;;4983880;28;20616;-80
2021/12/03 05:43:31;;;;;;;26.48;14.73;;;3.20;88.10;;;;;;4987124;28;20041;-79
2021/12/03 05:45:56;;;;;;;40.15;20.63;;;3.30;88.10;;;;;;4969304;28;20023;-79
2021/12/03 05:48:22;;;;;;;49.83;23.45;;;3.30;88.10;;;;;;4986174;28;20030;-77
2021/12/03 05:50:48;;;;;;;27.05;14.35;;;3.30;88.10;;;;;;4981644;28;20041;-78
2021/12/03 05:53:14;;;;;;;35.75;19.02;;;3.30;88.10;;;;;;4979968;28;20035;-78
2021/12/03 05:55:40;;;;;;;30.85;17.48;;;3.30;88.10;;;;;;4990154;28;20030;-78
2021/12/03 05:58:06;;;;;;;32.40;17.63;;;3.30;88.00;;;;;;4986160;28;20446;-85
2021/12/03 06:00:39;;;;;;;53.95;24.92;;;3.30;88.10;;;;;;4986007;28;20038;-77
2021/12/03 06:03:04;;;;;;;;;;;3.30;88.10;;;;;;4980368;28;20041;-77
2021/12/03 06:05:30;;;;;;;57.33;29.83;;;3.30;88.10;;;;;;4982523;28;19910;-77
2021/12/03 06:07:57;;;;;;;38.75;21.08;;;3.30;88.20;;;;;;4986753;28;20040;-78
2021/12/03 06:10:23;;;;;;;42.17;23.05;;;3.30;88.30;;;;;;4985824;28;20035;-77
2021/12/03 06:12:50;;;;;;;49.53;25.17;;;3.20;88.30;;;;;;4986796;28;20027;-77
2021/12/03 06:15:16;;;;;;;58.88;31.85;;;3.20;89.00;;;;;;4984824;28;20583;-78
2021/12/03 06:17:42;;;;;;;48.65;23.40;;;3.20;88.50;;;;;;4981000;28;20027;-77
2021/12/03 06:20:09;;;;;;;49.75;24.23;;;3.20;88.70;;;;;;4981829;28;20046;-78
2021/12/03 06:22:34;;;;;;;52.03;27.27;;;3.20;88.60;;;;;;4985215;28;20625;-78
2021/12/03 06:25:01;;;;;;;37.78;19.73;;;3.20;88.60;;;;;;4981263;28;20109;-79
2021/12/03 06:27:29;;;;;;;46.08;22.92;;;3.30;88.70;;;;;;4983924;28;20018;-78
2021/12/03 06:29:56;;;;;;;39.38;20.42;;;3.30;88.60;;;;;;4980176;28;20053;-78
2021/12/03 06:32:21;;;;;;;45.17;22.75;;;3.30;88.60;;;;;;4980946;28;20038;-81
2021/12/03 06:34:47;;;;;;;56.35;27.60;;;3.30;88.60;;;;;;4973614;28;20026;-79
2021/12/03 06:37:12;;;;;;;54.17;27.33;;;3.40;88.60;;;;;;4977285;28;20034;-78
2021/12/03 06:39:38;;;;;;;47.17;24.33;;;3.40;88.70;;;;;;4977479;28;20481;-78
2021/12/03 06:42:04;;;;;;;35.28;18.90;;;3.40;88.70;;;;;;4975288;28;20029;-77
2021/12/03 06:44:31;;;;;;;41.70;21.15;;;3.40;88.70;;;;;;4991654;28;20066;-77
2021/12/03 06:46:56;;;;;;;36.70;17.95;;;3.40;89.30;;;;;;4983410;28;20030;-78
2021/12/03 06:49:23;;;;;;;49.75;24.92;;;3.50;88.60;;;;;;4984515;28;20027;-79
2021/12/03 06:51:51;;;;;;;58.40;25.52;;;3.50;88.50;;;;;;4977955;28;20630;-81
2021/12/03 06:54:25;;;;;;;45.75;23.13;;;3.50;88.60;;;;;;4978906;28;20034;-78
2021/12/03 06:56:52;;;;;;;45.50;23.05;;;3.50;88.60;;;;;;4972312;28;20114;-79
2021/12/03 06:59:20;;;;;;;49.08;23.75;;;3.50;88.70;;;;;;4976239;28;20030;-80
2021/12/03 07:01:45;;;;;;;42.13;20.83;;;3.50;88.70;;;;;;4989550;28;20484;-79
2021/12/03 07:04:11;;;;;;;45.63;23.13;;;3.60;88.70;;;;;;4972970;28;20031;-79
2021/12/03 07:06:38;;;;;;;49.80;24.38;;;3.60;88.70;;;;;;4978208;28;20038;-78
2021/12/03 07:09:04;;;;;;;49.55;24.05;;;3.60;88.70;;;;;;4975631;28;20038;-79
2021/12/03 07:11:30;;;;;;;32.50;18.17;;;3.70;88.70;;;;;;4971062;28;20429;-79
2021/12/03 07:13:56;;;;;;;33.03;16.55;;;3.60;88.70;;;;;;4983120;28;20030;-78
2021/12/03 07:16:22;;;;;;;38.35;18.70;;;3.60;88.60;;;;;;4982580;28;20038;-78
2021/12/03 07:18:47;;;;;;;35.88;18.27;;;3.60;88.50;;;;;;4976312;28;20561;-79
2021/12/03 07:21:14;;;;;;;31.20;16.05;;;3.60;88.50;;;;;;4977957;28;20042;-78
2021/12/03 07:23:40;;;;;;;30.05;15.02;;;3.60;88.50;;;;;;4982201;28;20045;-78
2021/12/03 07:26:05;;;;;;;34.38;17.38;;;3.70;88.60;;;;;;4980097;28;20116;-78
2021/12/03 07:28:31;;;;;;;37.97;19.98;;;3.70;88.50;;;;;;4984875;28;20034;-78
2021/12/03 07:30:57;;;;;;;26.20;14.32;;;3.70;88.40;;;;;;4981950;28;20027;-79
2021/12/03 07:33:23;;;;;;;25.13;13.55;;;3.70;88.50;;;;;;4976720;28;20493;-80
2021/12/03 07:35:49;;;;;;;27.40;13.40;;;3.70;88.50;;;;;;4987026;28;20417;-78
2021/12/03 07:38:17;;;;;;;26.67;13.15;;;3.80;88.40;;;;;;4979935;28;20088;-79
2021/12/03 07:40:48;;;;;;;24.65;13.18;;;3.70;88.30;;;;;;4982178;28;20043;-77
2021/12/03 07:43:16;;;;;;;26.67;14.43;;;3.80;88.30;;;;;;4989078;28;20092;-79
2021/12/03 07:45:42;;;;;;;20.25;10.82;;;3.70;88.30;;;;;;4979524;28;20569;-78
2021/12/03 07:48:07;;;;;;;31.40;16.25;;;3.70;88.30;;;;;;4979815;28;20029;-80
2021/12/03 07:50:35;;;;;;;31.45;15.43;;;3.70;88.10;;;;;;4972045;28;20038;-79
2021/12/03 07:53:02;;;;;;;29.40;13.57;;;3.70;88.10;;;;;;4978377;28;20023;-80
2021/12/03 07:55:27;;;;;;;28.13;13.10;;;3.70;88.10;;;;;;4976307;28;20046;-81
2021/12/03 07:57:55;;;;;;;18.75;10.02;;;3.70;88.10;;;;;;4985128;28;20532;-78
2021/12/03 08:00:21;;;;;;;20.15;10.38;;;3.70;88.10;;;;;;4978522;28;20500;-78
2021/12/03 08:02:47;;;;;;;24.73;11.75;;;3.70;88.00;;;;;;4981432;28;20041;-77
2021/12/03 08:05:12;;;;;;;23.13;11.68;;;3.70;87.90;;;;;;4985677;28;20367;-78
2021/12/03 08:07:39;;;;;;;21.70;9.68;;;3.70;87.80;;;;;;4983098;28;20123;-77
2021/12/03 08:10:06;;;;;;;20.48;9.70;;;3.70;87.70;;;;;;4986326;28;20552;-79
2021/12/03 08:12:31;;;;;;;21.10;9.50;;;3.70;87.50;;;;;;4981541;28;20434;-78
2021/12/03 08:14:57;;;;;;;17.00;8.95;;;3.70;87.30;;;;;;4980920;28;20065;-78
2021/12/03 08:17:23;;;;;;;20.98;8.70;;;3.70;87.10;;;;;;4978406;28;20117;-81
2021/12/03 08:19:48;;;;;;;19.30;10.30;;;3.70;86.90;;;;;;4975723;28;20074;-80
2021/12/03 08:22:14;;;;;;;13.15;6.32;;;3.70;86.80;;;;;;4983599;28;20094;-78
2021/12/03 08:24:39;;;;;;;12.70;5.60;;;3.80;86.80;;;;;;4983088;28;20093;-79
2021/12/03 08:27:05;;;;;;;15.82;7.65;;;3.70;86.60;;;;;;4976914;28;20034;-77
2021/12/03 08:29:31;;;;;;;11.65;6.55;;;3.70;86.50;;;;;;4976390;28;20054;-77
2021/12/03 08:31:56;;;;;;;10.65;5.03;;;3.80;86.30;;;;;;4975862;28;20068;-77
2021/12/03 08:34:22;;;;;;;16.17;7.30;;;3.80;86.20;;;;;;4983892;28;20026;-79
2021/12/03 08:36:47;;;;;;;14.35;6.43;;;3.70;85.80;;;;;;4981053;28;20030;-79
2021/12/03 08:39:13;;;;;;;14.95;6.38;;;3.70;85.70;;;;;;4988125;28;20042;-84
2021/12/03 08:41:38;;;;;;;15.20;6.57;;;3.80;85.60;;;;;;4996017;28;20114;-79
2021/12/03 08:44:04;;;;;;;10.75;5.68;;;3.70;85.50;;;;;;4985127;28;20073;-78
2021/12/03 08:46:33;;;;;;;11.38;4.75;;;3.70;85.40;;;;;;4986457;28;20084;-77
2021/12/03 08:49:16;;;;;;;13.38;6.18;;;3.80;85.50;;;;;;4987045;28;20036;-78
2021/12/03 08:56:52;;;;;;;19.00;8.52;;;3.80;85.10;;;;;;4993829;28;20088;-76
2021/12/03 08:59:18;;;;;;;16.67;6.35;;;3.80;84.90;;;;;;4993100;28;20492;-77
2021/12/03 09:01:44;;;;;;;13.93;6.30;;;3.80;84.70;;;;;;4991243;28;20556;-77
2021/12/03 09:04:10;;;;;;;12.23;5.57;;;3.80;84.70;;;;;;4982145;28;20710;-77
2021/12/03 09:06:36;;;;;;;10.52;4.47;;;3.80;84.60;;;;;;4997159;28;20041;-78
2021/12/03 09:09:02;;;;;;;10.02;4.50;;;3.80;84.70;;;;;;4989446;28;20026;-76
2021/12/03 09:11:29;;;;;;;14.68;5.50;;;3.90;84.70;;;;;;4990976;28;20021;-76
2021/12/03 09:13:55;;;;;;;12.10;5.50;;;3.90;85.10;;;;;;4987982;28;20050;-76
2021/12/03 09:16:22;;;;;;;13.75;6.05;;;3.90;84.40;;;;;;4999523;28;20536;-75
2021/12/03 09:18:49;;;;;;;10.32;5.07;;;3.90;84.30;;;;;;4989047;28;20400;-76
2021/12/03 09:21:26;;;;;;;11.20;4.45;;;3.90;84.00;;;;;;4986845;28;20034;-83
2021/12/03 09:24:15;;;;;;;9.18;4.47;;;3.90;84.10;;;;;;4984641;28;20038;-81
2021/12/03 09:26:42;;;;;;;7.90;3.78;;;3.90;84.10;;;;;;4992695;28;20374;-78
2021/12/03 09:29:12;;;;;;;11.48;4.70;;;4.00;84.10;;;;;;4990175;28;20041;-77
2021/12/03 09:31:42;;;;;;;12.18;5.25;;;4.00;84.00;;;;;;4996469;28;20580;-78
2021/12/03 09:34:09;;;;;;;17.27;5.95;;;4.00;84.00;;;;;;4992145;28;20030;-79
2021/12/03 09:36:39;;;;;;;8.85;4.70;;;4.00;84.00;;;;;;4987423;28;20474;-78
2021/12/03 09:39:05;;;;;;;8.88;4.78;;;4.00;83.90;;;;;;4996065;28;20026;-76
2021/12/03 09:41:31;;;;;;;12.68;4.85;;;4.10;83.90;;;;;;4987955;28;20030;-77
2021/12/03 09:43:57;;;;;;;10.82;4.75;;;4.10;83.70;;;;;;4991411;28;20484;-77
2021/12/03 09:46:25;;;;;;;10.18;4.90;;;4.10;83.70;;;;;;4987389;28;20126;-76
2021/12/03 09:51:31;;;;;;;10.88;4.85;;;4.20;83.80;;;;;;4996289;28;20034;-78
2021/12/03 09:56:41;;;;;;;11.88;4.18;;;4.20;83.50;;;;;;4993640;28;20535;-77
2021/12/03 10:01:47;;;;;;;14.52;5.00;;;4.20;83.30;;;;;;4984081;28;20050;-79
2021/12/03 10:12:48;;;;;;;7.70;3.70;;;4.20;83.00;;;;;;4983456;28;20034;-80
2021/12/03 10:15:28;;;;;;;10.77;3.72;;;4.10;83.00;;;;;;4982991;28;20030;-78
2021/12/03 10:26:24;;;;;;;16.17;4.40;;;4.20;82.50;;;;;;4985472;28;20038;-77
2021/12/03 10:28:47;;;;;;;15.43;5.13;;;4.20;82.40;;;;;;4989260;28;20035;-78
2021/12/03 10:34:07;;;;;;;;;;;4.20;82.20;;;;;;4978625;28;20497;-76
2021/12/03 10:39:35;;;;;;;10.73;3.50;;;4.10;82.00;;;;;;4987093;28;20034;-77
2021/12/03 10:44:55;;;;;;;9.57;3.55;;;4.20;82.20;;;;;;4988244;28;20524;-76
2021/12/03 10:47:42;;;;;;;15.15;4.35;;;4.20;82.20;;;;;;4977309;28;20149;-77
2021/12/03 12:04:30;;;;;;;12.88;5.30;;;4.70;85.00;;;;;;4985826;28;20112;-78
2021/12/03 13:09:34;;;;;;;8.57;4.05;;;5.30;81.40;;;;;;4990052;28;20054;-78
2021/12/03 13:12:09;;;;;;;6.70;3.75;;;5.30;81.50;;;;;;4975674;28;20395;-78
2021/12/03 13:14:58;;;;;;;6.20;3.67;;;5.30;81.10;;;;;;4993772;28;20061;-78
2021/12/03 13:20:29;;;;;;;11.30;5.20;;;5.40;80.80;;;;;;4988335;28;20030;-77
2021/12/03 13:29:25;;;;;;;10.35;4.70;;;5.40;80.40;;;;;;5003934;28;20077;-77
2021/12/03 13:40:09;;;;;;;5.57;3.58;;;5.40;80.10;;;;;;4988157;28;20083;-77
2021/12/03 13:46:32;;;;;;;6.28;3.95;;;5.40;80.20;;;;;;4975104;28;20042;-78
2021/12/03 13:59:38;;;;;;;9.02;4.57;;;5.50;80.30;;;;;;4984151;28;20405;-78
2021/12/03 14:05:05;;;;;;;9.95;4.15;;;5.40;80.50;;;;;;4980465;28;20033;-79
2021/12/03 14:19:22;;;;;;;8.38;3.67;;;5.30;81.20;;;;;;4987300;28;20493;-80
2021/12/03 14:22:40;;;;;;;7.80;3.25;;;5.40;81.30;;;;;;4983548;28;20509;-78
2021/12/03 14:31:42;;;;;;;8.00;3.88;;;5.40;81.60;;;;;;4978758;28;20050;-79
2021/12/03 14:38:50;;;;;;;6.18;3.20;;;5.40;81.90;;;;;;4995207;28;20346;-78
2021/12/03 14:41:33;;;;;;;9.00;4.43;;;5.30;82.10;;;;;;4986614;28;20062;-78
2021/12/03 14:44:20;;;;;;;7.18;3.80;;;5.30;82.60;;;;;;4992546;28;20023;-78
2021/12/03 14:47:06;;;;;;;8.50;4.07;;;5.20;82.90;;;;;;4989768;28;20084;-78
2021/12/03 14:52:13;;;;;;;6.53;3.50;;;5.20;83.70;;;;;;4998149;28;20038;-78
2021/12/03 15:03:11;;;;;;;8.37;3.30;;;5.10;84.70;;;;;;4986553;28;20038;-78
2021/12/03 15:08:42;;;;;;;6.63;3.40;;;5.00;85.30;;;;;;4986530;28;20092;-78
2021/12/03 15:14:37;;;;;;;4.40;3.22;;;5.00;85.80;;;;;;4981748;28;20108;-78
2021/12/03 15:20:08;;;;;;;5.35;3.88;;;5.00;86.20;;;;;;4985633;28;20168;-78
2021/12/03 15:33:11;;;;;;;5.10;2.97;;;4.90;87.70;;;;;;4978185;28;20497;-78
2021/12/03 16:06:13;;;;;;;7.47;5.13;;;4.90;88.90;;;;;;4982946;28;20070;-76
2021/12/03 16:08:40;;;;;;;7.50;5.38;;;4.90;89.10;;;;;;4979917;28;20363;-77
2021/12/03 16:21:39;;;;;;;4.38;3.35;;;5.00;89.40;;;;;;4989081;28;20081;-77
2021/12/03 16:53:41;;;;;;;14.25;12.85;;;5.10;90.10;;;;;;4989388;28;20038;-77
2021/12/03 16:56:14;;;;;;;10.27;8.77;;;5.10;90.10;;;;;;4977333;28;20023;-77
2021/12/03 16:58:41;;;;;;;7.15;5.63;;;5.10;90.10;;;;;;4983163;28;20034;-77
2021/12/03 17:01:31;;;;;;;6.40;5.80;;;5.10;90.10;;;;;;4993742;28;20397;-77
2021/12/03 17:04:34;;;;;;;5.10;4.25;;;5.10;90.10;;;;;;4993513;28;20104;-77
2021/12/03 17:09:31;;;;;;;5.95;4.82;;;5.10;90.00;;;;;;4992775;28;20030;-78
2021/12/03 17:17:52;;;;;;;7.60;6.60;;;5.20;90.10;;;;;;4995744;28;20030;-78
2021/12/03 17:20:32;;;;;;;9.70;7.28;;;5.20;90.10;;;;;;4987993;28;20153;-77
2021/12/03 17:26:17;;;;;;;9.23;7.18;;;5.30;90.00;;;;;;4992830;28;20026;-78
2021/12/03 17:31:36;;;;;;;4.28;3.88;;;5.40;90.00;;;;;;4992367;28;20045;-78
2021/12/03 17:53:24;;;;;;;6.13;5.45;;;5.30;90.00;;;;;;4981891;28;20173;-76
2021/12/03 17:58:37;;;;;;;10.23;7.70;;;5.40;90.00;;;;;;4977192;28;20114;-76
2021/12/03 18:01:30;;;;;;;6.45;5.75;;;5.30;90.10;;;;;;4985232;28;20030;-75
2021/12/03 18:06:47;;;;;;;7.00;5.85;;;5.30;90.00;;;;;;4980672;28;20034;-76
2021/12/03 18:09:30;;;;;;;5.78;5.20;;;5.40;90.00;;;;;;4983436;28;20046;-76
2021/12/03 18:46:50;;;;;;;7.60;6.80;;;5.40;90.10;;;;;;4983786;28;20042;-79
2021/12/03 18:51:49;;;;;;;8.25;7.45;;;5.30;90.10;;;;;;4980765;28;20038;-78
2021/12/03 18:56:46;;;;;;;8.15;7.43;;;5.40;90.10;;;;;;4983651;28;20045;-78
2021/12/03 18:59:12;;;;;;;9.02;8.13;;;5.40;90.20;;;;;;4979052;28;20026;-77
2021/12/03 19:01:38;;;;;;;6.93;6.22;;;5.40;90.10;;;;;;4979015;28;20046;-78
2021/12/03 19:06:58;;;;;;;8.40;7.43;;;5.40;90.10;;;;;;4982877;28;20081;-79
2021/12/03 19:09:37;;;;;;;10.10;9.02;;;5.40;90.10;;;;;;4983845;28;20101;-79
2021/12/03 19:12:07;;;;;;;14.15;12.75;;;5.40;90.10;;;;;;4982760;28;20029;-79
2021/12/03 19:14:36;;;;;;;8.32;7.55;;;5.40;90.10;;;;;;4984600;28;20113;-78
2021/12/03 19:17:02;;;;;;;8.90;8.00;;;5.40;90.10;;;;;;4981466;28;20077;-80
2021/12/03 19:19:30;;;;;;;8.60;7.70;;;5.40;90.10;;;;;;4982039;28;20371;-79
2021/12/03 19:21:58;;;;;;;7.55;6.65;;;5.40;90.10;;;;;;4983355;28;20062;-78
2021/12/03 19:24:25;;;;;;;8.90;8.10;;;5.40;90.10;;;;;;4982787;28;20498;-78
2021/12/03 19:26:50;;;;;;;8.52;7.72;;;5.50;90.10;;;;;;4980793;28;20129;-79
2021/12/03 19:29:19;;;;;;;6.30;5.70;;;5.50;90.10;;;;;;4981830;28;20015;-77
2021/12/03 19:31:50;;;;;;;6.82;6.18;;;5.50;90.10;;;;;;4984151;28;20057;-78
2021/12/03 19:34:18;;;;;;;9.80;8.90;;;5.50;90.10;;;;;;4981288;28;20097;-77
2021/12/03 19:36:45;;;;;;;11.23;10.15;;;5.50;90.00;;;;;;4983893;28;20031;-77
2021/12/03 19:39:13;;;;;;;7.28;6.57;;;5.50;90.00;;;;;;4981203;28;20035;-78
2021/12/03 19:41:47;;;;;;;8.40;7.60;;;5.50;90.10;;;;;;4982814;28;20034;-78
2021/12/03 19:44:18;;;;;;;9.82;8.88;;;5.50;90.10;;;;;;4979635;28;20015;-78
2021/12/03 19:46:47;;;;;;;7.82;6.95;;;5.50;90.10;;;;;;4979995;28;20118;-77
2021/12/03 19:49:33;;;;;;;7.95;7.15;;;5.50;90.10;;;;;;4979121;28;20019;-77
2021/12/03 19:52:06;;;;;;;8.27;7.43;;;5.50;90.10;;;;;;4977067;28;20532;-75